createdAt,value
2018-03-14T00:01:46.053Z,91.19
2018-03-14T00:04:19.797Z,90.99
2018-03-14T00:06:53.495Z,91.00
2018-03-14T00:09:27.149Z,91.08
2018-03-14T00:12:00.717Z,90.87
2018-03-14T00:14:34.237Z,90.83
2018-03-14T00:17:07.818Z,90.86
2018-03-14T00:19:41.465Z,90.78
2018-03-14T00:22:26.979Z,90.82
2018-03-14T00:25:00.754Z,91.16
2018-03-14T00:27:34.429Z,91.09
2018-03-14T00:30:08.221Z,91.08
2018-03-14T00:32:41.978Z,90.90
2018-03-14T00:35:15.608Z,90.93
2018-03-14T00:37:49.219Z,90.86
2018-03-14T00:40:22.855Z,91.17
2018-03-14T00:42:56.409Z,91.33
2018-03-14T00:45:30.070Z,91.36
2018-03-14T00:48:04.013Z,91.25
2018-03-14T00:50:37.693Z,91.10
2018-03-14T00:53:11.229Z,91.23
2018-03-14T00:55:44.726Z,91.16
2018-03-14T00:58:18.423Z,91.06
2018-03-14T01:00:52.006Z,90.99
2018-03-14T01:03:25.612Z,90.99
2018-03-14T01:05:59.399Z,91.21
2018-03-14T01:08:33.066Z,91.31
2018-03-14T01:11:06.710Z,91.33
2018-03-14T01:13:40.375Z,91.19
2018-03-14T01:16:14.025Z,91.20
2018-03-14T01:18:47.677Z,91.12
2018-03-14T01:21:21.321Z,91.12
2018-03-14T01:23:55.059Z,91.33
2018-03-14T01:26:28.605Z,91.33
2018-03-14T01:29:02.196Z,91.48
2018-03-14T01:31:35.712Z,91.51
2018-03-14T01:34:09.443Z,91.56
2018-03-14T01:36:43.041Z,91.51
2018-03-14T01:39:16.836Z,91.42
2018-03-14T01:41:50.508Z,91.30
2018-03-14T01:44:24.119Z,91.37
2018-03-14T01:46:57.712Z,91.39
2018-03-14T01:49:31.349Z,91.35
2018-03-14T01:52:04.973Z,91.43
2018-03-14T01:54:38.546Z,91.42
2018-03-14T01:57:12.275Z,91.45
2018-03-14T01:59:45.973Z,91.55
2018-03-14T02:02:19.602Z,91.51
2018-03-14T02:04:53.634Z,91.39
2018-03-14T02:07:27.349Z,91.49
2018-03-14T02:10:01.403Z,91.46
2018-03-14T02:12:35.311Z,91.35
2018-03-14T02:15:08.928Z,91.27
2018-03-14T02:17:42.566Z,91.28
2018-03-14T02:20:16.186Z,91.41
2018-03-14T02:22:49.881Z,91.43
2018-03-14T02:25:23.481Z,91.39
2018-03-14T02:27:57.066Z,91.10
2018-03-14T02:30:30.702Z,91.20
2018-03-14T02:33:04.310Z,91.22
2018-03-14T02:35:38.027Z,91.18
2018-03-14T02:38:11.577Z,91.15
2018-03-14T02:40:45.212Z,91.18
2018-03-14T02:43:18.821Z,91.20
2018-03-14T02:45:52.482Z,91.26
2018-03-14T02:48:26.038Z,91.22
2018-03-14T02:50:59.734Z,91.10
2018-03-14T02:53:33.293Z,91.06
2018-03-14T02:56:06.917Z,91.03
2018-03-14T02:58:40.631Z,91.01
2018-03-14T03:01:14.309Z,90.97
2018-03-14T03:03:47.990Z,90.98
2018-03-14T03:06:21.657Z,91.09
2018-03-14T03:08:55.330Z,91.10
2018-03-14T03:11:28.944Z,90.87
2018-03-14T03:14:02.658Z,90.85
2018-03-14T03:16:36.325Z,90.72
2018-03-14T03:19:09.985Z,90.97
2018-03-14T03:21:43.550Z,90.91
2018-03-14T03:24:17.068Z,90.95
2018-03-14T03:26:50.753Z,90.95
2018-03-14T03:29:24.281Z,90.90
2018-03-14T03:31:57.966Z,90.93
2018-03-14T03:34:31.523Z,90.92
2018-03-14T03:37:05.058Z,91.01
2018-03-14T03:39:38.781Z,91.06
2018-03-14T03:42:12.441Z,91.07
2018-03-14T03:44:45.969Z,91.22
2018-03-14T03:47:19.573Z,91.23
2018-03-14T03:49:53.105Z,91.10
2018-03-14T03:52:26.680Z,91.18
2018-03-14T03:55:00.474Z,91.17
2018-03-14T03:57:34.178Z,91.10
2018-03-14T04:00:08.027Z,91.17
2018-03-14T04:02:41.638Z,91.15
2018-03-14T04:05:15.426Z,91.13
2018-03-14T04:07:49.027Z,91.11
2018-03-14T04:10:22.664Z,91.18
2018-03-14T04:12:56.239Z,91.30
2018-03-14T04:15:29.902Z,91.25
2018-03-14T04:18:03.522Z,91.36
2018-03-14T04:20:37.165Z,91.30
2018-03-14T04:23:10.921Z,91.37
2018-03-14T04:25:44.517Z,91.31
2018-03-14T04:28:18.192Z,91.33
2018-03-14T04:30:51.814Z,91.20
2018-03-14T04:33:25.390Z,91.09
2018-03-14T04:35:59.050Z,91.15
2018-03-14T04:38:32.709Z,91.17
2018-03-14T04:41:06.285Z,91.18
2018-03-14T04:43:39.873Z,91.24
2018-03-14T04:46:13.530Z,91.17
2018-03-14T04:48:47.059Z,91.07
2018-03-14T04:51:20.742Z,91.14
2018-03-14T04:53:54.341Z,91.21
2018-03-14T04:56:28.174Z,91.26
2018-03-14T04:59:01.774Z,91.21
2018-03-14T05:01:35.338Z,91.08
2018-03-14T05:04:08.930Z,90.94
2018-03-14T05:06:42.578Z,90.98
2018-03-14T05:09:16.306Z,90.97
2018-03-14T05:11:49.938Z,90.88
2018-03-14T05:14:23.535Z,90.75
2018-03-14T05:16:57.138Z,90.46
2018-03-14T05:19:30.762Z,90.48
2018-03-14T05:22:04.310Z,90.64
2018-03-14T05:24:38.058Z,90.68
2018-03-14T05:27:11.798Z,90.77
2018-03-14T05:29:45.398Z,90.83
2018-03-14T05:32:18.966Z,90.67
2018-03-14T05:34:52.589Z,90.71
2018-03-14T05:37:26.225Z,90.89
2018-03-14T05:39:59.810Z,90.95
2018-03-14T05:42:33.742Z,90.87
2018-03-14T05:45:07.342Z,90.90
2018-03-14T05:47:41.029Z,90.59
2018-03-14T05:50:14.630Z,90.39
2018-03-14T05:52:48.294Z,90.28
2018-03-14T05:55:21.922Z,90.38
2018-03-14T05:57:55.658Z,90.46
2018-03-14T06:00:29.258Z,90.46
2018-03-14T06:03:02.813Z,90.72
2018-03-14T06:05:36.521Z,90.69
2018-03-14T06:08:10.118Z,90.70
2018-03-14T06:10:43.742Z,90.71
2018-03-14T06:13:17.360Z,90.63
2018-03-14T06:15:51.005Z,90.62
2018-03-14T06:18:24.534Z,90.45
2018-03-14T06:20:58.105Z,90.25
2018-03-14T06:23:31.638Z,90.19
2018-03-14T06:26:05.177Z,90.36
2018-03-14T06:28:38.829Z,90.23
2018-03-14T06:31:12.424Z,90.20
2018-03-14T06:33:46.061Z,90.19
2018-03-14T06:36:20.004Z,90.25
2018-03-14T06:38:53.630Z,90.31
2018-03-14T06:41:27.509Z,90.34
2018-03-14T06:44:01.190Z,90.47
2018-03-14T06:46:34.805Z,90.45
2018-03-14T06:49:08.453Z,90.50
2018-03-14T06:51:42.036Z,90.55
2018-03-14T06:54:15.667Z,90.31
2018-03-14T06:56:56.885Z,90.06
2018-03-14T06:59:42.265Z,90.17
2018-03-14T07:02:27.914Z,89.76
2018-03-14T07:05:13.521Z,89.57
2018-03-14T07:07:47.296Z,89.82
2018-03-14T07:10:21.099Z,88.71
2018-03-14T07:12:54.821Z,88.94
2018-03-14T07:15:28.443Z,89.06
2018-03-14T07:18:02.169Z,88.22
2018-03-14T07:20:35.825Z,87.73
2018-03-14T07:23:09.373Z,83.73
2018-03-14T07:25:43.018Z,76.36
2018-03-14T07:28:16.565Z,70.97
2018-03-14T07:30:50.176Z,67.58
2018-03-14T07:33:23.835Z,65.76
2018-03-14T07:35:58.321Z,62.50
2018-03-14T07:38:31.975Z,59.83
2018-03-14T07:41:05.765Z,58.94
2018-03-14T07:43:39.434Z,57.68
2018-03-14T07:46:12.974Z,53.98
2018-03-14T07:48:46.450Z,50.09
2018-03-14T07:51:20.131Z,47.17
2018-03-14T07:53:53.766Z,47.48
2018-03-14T07:56:27.313Z,47.91
2018-03-14T07:59:00.902Z,46.58
2018-03-14T08:01:34.682Z,46.92
2018-03-14T08:04:08.497Z,49.34
2018-03-14T08:06:42.144Z,44.26
2018-03-14T08:09:15.902Z,46.65
2018-03-14T08:11:49.562Z,45.47
2018-03-14T08:14:23.114Z,45.49
2018-03-14T08:16:56.670Z,48.49
2018-03-14T08:19:30.363Z,47.63
2018-03-14T08:22:03.910Z,48.52
2018-03-14T08:24:37.626Z,48.10
2018-03-14T08:27:11.374Z,48.80
2018-03-14T08:29:45.182Z,49.25
2018-03-14T08:32:18.834Z,46.92
2018-03-14T08:34:53.110Z,47.47
2018-03-14T08:37:26.793Z,54.46
2018-03-14T08:40:00.413Z,50.93
2018-03-14T08:42:34.199Z,52.78
2018-03-14T08:45:07.738Z,52.36
2018-03-14T08:47:41.285Z,58.18
2018-03-14T08:50:14.993Z,50.05
2018-03-14T08:52:48.686Z,49.04
2018-03-14T08:55:22.238Z,50.20
2018-03-14T08:57:55.982Z,51.00
2018-03-14T09:00:29.734Z,51.35
2018-03-14T09:03:03.426Z,51.40
2018-03-14T09:05:37.082Z,49.32
2018-03-14T09:08:10.890Z,51.40
2018-03-14T09:10:44.521Z,53.17
2018-03-14T09:13:18.269Z,53.75
2018-03-14T09:15:51.930Z,49.42
2018-03-14T09:18:25.684Z,47.99
2018-03-14T09:20:59.291Z,47.09
2018-03-14T09:23:32.902Z,50.60
2018-03-14T09:26:06.571Z,53.70
2018-03-14T09:28:40.255Z,52.44
2018-03-14T09:31:13.826Z,50.95
2018-03-14T09:33:47.379Z,50.08
2018-03-14T09:36:20.950Z,48.74
2018-03-14T09:38:54.677Z,46.70
2018-03-14T09:41:28.556Z,45.88
2018-03-14T09:44:02.105Z,42.66
2018-03-14T09:46:35.790Z,36.93
2018-03-14T09:49:09.348Z,42.99
2018-03-14T09:51:42.891Z,47.77
2018-03-14T09:54:16.609Z,49.57
2018-03-14T09:56:50.170Z,50.53
2018-03-14T09:59:23.730Z,56.48
2018-03-14T10:01:57.289Z,56.75
2018-03-14T10:04:30.958Z,54.69
2018-03-14T10:07:04.609Z,55.58
2018-03-14T10:09:38.314Z,55.80
2018-03-14T10:12:11.880Z,57.24
2018-03-14T10:14:45.414Z,53.87
2018-03-14T10:17:18.974Z,56.33
2018-03-14T10:19:52.506Z,58.21
2018-03-14T10:22:26.048Z,58.47
2018-03-14T10:24:59.637Z,59.77
2018-03-14T10:27:33.405Z,59.51
2018-03-14T10:30:07.130Z,59.17
2018-03-14T10:32:40.714Z,59.33
2018-03-14T10:35:14.375Z,60.78
2018-03-14T10:37:48.006Z,60.89
2018-03-14T10:40:21.586Z,58.70
2018-03-14T10:42:55.105Z,59.26
2018-03-14T10:45:28.690Z,60.22
2018-03-14T10:48:02.273Z,59.88
2018-03-14T10:50:35.805Z,60.62
2018-03-14T10:53:09.462Z,60.54
2018-03-14T10:55:43.148Z,58.88
2018-03-14T10:58:16.834Z,56.72
2018-03-14T11:00:55.980Z,55.33
2018-03-14T11:03:35.602Z,57.13
2018-03-14T11:06:09.269Z,57.43
2018-03-14T11:08:42.982Z,58.46
2018-03-14T11:11:16.553Z,58.21
2018-03-14T11:13:50.371Z,56.91
2018-03-14T11:16:23.974Z,56.96
2018-03-14T11:18:57.485Z,55.87
2018-03-14T11:21:31.173Z,54.62
2018-03-14T11:24:04.679Z,56.25
2018-03-14T11:26:38.238Z,56.21
2018-03-14T11:29:12.031Z,56.91
2018-03-14T11:31:45.561Z,54.44
2018-03-14T11:34:19.202Z,55.36
2018-03-14T11:36:52.927Z,52.67
2018-03-14T11:39:26.688Z,53.41
2018-03-14T11:42:00.345Z,52.60
2018-03-14T11:44:33.993Z,52.72
2018-03-14T11:47:07.546Z,53.31
2018-03-14T11:49:41.341Z,52.99
2018-03-14T11:52:15.086Z,52.61
2018-03-14T11:54:48.678Z,55.52
2018-03-14T11:57:22.252Z,57.83
2018-03-14T11:59:55.777Z,56.75
2018-03-14T12:02:29.561Z,56.44
2018-03-14T12:05:03.334Z,56.41
2018-03-14T12:07:37.079Z,55.08
2018-03-14T12:10:10.650Z,56.59
2018-03-14T12:12:44.243Z,56.55
2018-03-14T12:15:17.835Z,54.80
2018-03-14T12:17:51.476Z,55.33
2018-03-14T12:20:25.039Z,55.04
2018-03-14T12:22:58.685Z,55.52
2018-03-14T12:25:32.318Z,54.11
2018-03-14T12:28:05.956Z,54.96
2018-03-14T12:30:39.439Z,55.90
2018-03-14T12:33:13.089Z,54.37
2018-03-14T12:35:46.629Z,56.53
2018-03-14T12:38:20.426Z,54.97
2018-03-14T12:40:54.098Z,55.46
2018-03-14T12:43:27.662Z,55.03
2018-03-14T12:46:01.289Z,53.04
2018-03-14T12:48:34.905Z,52.89
2018-03-14T12:51:08.463Z,53.68
2018-03-14T12:53:42.141Z,52.34
2018-03-14T12:56:15.848Z,52.92
2018-03-14T12:58:49.634Z,53.75
2018-03-14T13:01:23.194Z,53.58
2018-03-14T13:03:56.867Z,54.32
2018-03-14T13:06:30.714Z,53.42
2018-03-14T13:09:04.341Z,54.28
2018-03-14T13:11:37.936Z,53.11
2018-03-14T13:14:11.479Z,51.49
2018-03-14T13:16:45.089Z,52.03
2018-03-14T13:19:18.781Z,52.20
2018-03-14T13:21:52.553Z,53.34
2018-03-14T13:24:26.193Z,52.25
2018-03-14T13:27:00.078Z,51.91
2018-03-14T13:29:33.734Z,53.68
2018-03-14T13:32:07.260Z,54.58
2018-03-14T13:34:40.973Z,52.29
2018-03-14T13:37:14.500Z,51.98
2018-03-14T13:39:48.042Z,52.18
2018-03-14T13:42:21.537Z,51.72
2018-03-14T13:44:55.057Z,51.70
2018-03-14T13:47:28.651Z,51.62
2018-03-14T13:50:02.130Z,50.28
2018-03-14T13:52:35.950Z,51.19
2018-03-14T13:55:09.569Z,50.42
2018-03-14T13:57:43.331Z,49.64
2018-03-14T14:00:17.029Z,51.59
2018-03-14T14:02:50.571Z,50.19
2018-03-14T14:05:24.254Z,48.99
2018-03-14T14:07:57.805Z,49.12
2018-03-14T14:10:31.358Z,48.88
2018-03-14T14:13:05.092Z,50.03
2018-03-14T14:15:38.645Z,48.79
2018-03-14T14:18:12.366Z,49.11
2018-03-14T14:20:46.110Z,48.93
2018-03-14T14:23:19.743Z,47.53
2018-03-14T14:25:53.226Z,47.11
2018-03-14T14:28:26.954Z,46.43
2018-03-14T14:31:00.771Z,48.13
2018-03-14T14:33:34.406Z,48.88
2018-03-14T14:36:08.062Z,48.40
2018-03-14T14:38:41.609Z,48.51
2018-03-14T14:41:15.246Z,46.04
2018-03-14T14:43:48.784Z,47.51
2018-03-14T14:46:22.542Z,46.97
2018-03-14T14:48:56.168Z,46.97
2018-03-14T14:51:29.717Z,45.88
2018-03-14T14:54:03.358Z,45.29
2018-03-14T14:56:37.126Z,45.08
2018-03-14T14:59:10.825Z,45.57
2018-03-14T15:01:44.391Z,45.25
2018-03-14T15:04:18.229Z,46.48
2018-03-14T15:06:51.910Z,47.42
2018-03-14T15:09:25.703Z,48.11
2018-03-14T15:11:59.194Z,48.96
2018-03-14T15:14:32.950Z,50.52
2018-03-14T15:17:06.558Z,49.75
2018-03-14T15:19:40.319Z,50.22
2018-03-14T15:22:13.849Z,49.79
2018-03-14T15:24:47.503Z,49.60
2018-03-14T15:27:21.036Z,49.56
2018-03-14T15:29:54.554Z,50.08
2018-03-14T15:32:28.197Z,50.24
2018-03-14T15:35:01.814Z,50.18
2018-03-14T15:37:35.562Z,50.90
2018-03-14T15:40:09.086Z,51.88
2018-03-14T15:42:42.625Z,51.87
2018-03-14T15:45:16.246Z,53.34
2018-03-14T15:47:49.874Z,52.65
2018-03-14T15:50:23.582Z,52.77
2018-03-14T15:52:57.366Z,53.28
2018-03-14T15:55:31.017Z,52.88
2018-03-14T15:58:04.663Z,53.21
2018-03-14T16:00:38.362Z,53.78
2018-03-14T16:03:11.930Z,53.95
2018-03-14T16:05:45.606Z,53.37
2018-03-14T16:08:19.330Z,52.78
2018-03-14T16:10:53.297Z,53.65
2018-03-14T16:13:26.873Z,54.64
2018-03-14T16:16:00.701Z,52.72
2018-03-14T16:18:34.240Z,52.22
2018-03-14T16:21:07.886Z,51.08
2018-03-14T16:23:41.480Z,51.63
2018-03-14T16:26:15.120Z,49.15
2018-03-14T16:28:48.787Z,47.25
2018-03-14T16:31:22.547Z,45.80
2018-03-14T16:33:56.225Z,43.32
2018-03-14T16:36:29.946Z,41.72
2018-03-14T16:39:03.547Z,41.53
2018-03-14T16:41:37.090Z,41.35
2018-03-14T16:44:10.702Z,42.52
2018-03-14T16:46:44.453Z,41.73
2018-03-14T16:49:18.172Z,41.80
2018-03-14T16:51:52.005Z,42.57
2018-03-14T16:54:25.529Z,44.88
2018-03-14T16:56:59.326Z,45.54
2018-03-14T16:59:32.942Z,47.31
2018-03-14T17:02:06.678Z,47.25
2018-03-14T17:04:40.230Z,48.19
2018-03-14T17:07:13.861Z,49.19
2018-03-14T17:09:47.358Z,51.38
2018-03-14T17:12:21.027Z,53.16
2018-03-14T17:14:54.677Z,53.75
2018-03-14T17:17:28.457Z,54.22
2018-03-14T17:20:02.111Z,54.78
2018-03-14T17:22:35.726Z,55.37
2018-03-14T17:25:09.234Z,55.55
2018-03-14T17:27:42.785Z,56.54
2018-03-14T17:30:16.393Z,57.65
2018-03-14T17:32:50.055Z,57.01
2018-03-14T17:35:23.550Z,58.47
2018-03-14T17:37:57.234Z,59.86
2018-03-14T17:40:30.861Z,60.01
2018-03-14T17:43:04.409Z,60.15
2018-03-14T17:45:37.857Z,61.78
2018-03-14T17:48:11.457Z,61.22
2018-03-14T17:50:44.973Z,60.95
2018-03-14T17:53:18.739Z,61.64
2018-03-14T17:55:52.359Z,61.82
2018-03-14T17:58:25.939Z,61.71
2018-03-14T18:00:59.455Z,62.06
2018-03-14T18:03:33.080Z,61.81
2018-03-14T18:06:06.801Z,62.23
2018-03-14T18:08:40.446Z,62.60
2018-03-14T18:11:13.970Z,62.50
2018-03-14T18:13:47.522Z,63.43
2018-03-14T18:16:21.094Z,63.49
2018-03-14T18:18:54.771Z,63.79
2018-03-14T18:21:28.368Z,63.60
2018-03-14T18:24:01.878Z,64.06
2018-03-14T18:26:35.439Z,64.20
2018-03-14T18:29:09.019Z,64.64
2018-03-14T18:31:43.305Z,64.48
2018-03-14T18:34:16.834Z,64.79
2018-03-14T18:36:50.466Z,64.78
2018-03-14T18:39:24.096Z,64.81
2018-03-14T18:41:57.702Z,64.66
2018-03-14T18:44:31.270Z,64.73
2018-03-14T18:47:04.911Z,64.40
2018-03-14T18:49:38.591Z,65.41
2018-03-14T18:52:12.053Z,65.61
2018-03-14T18:54:45.644Z,65.79
2018-03-14T18:57:19.270Z,65.57
2018-03-14T18:59:52.830Z,66.01
2018-03-14T19:02:26.806Z,66.39
2018-03-14T19:05:00.474Z,66.46
2018-03-14T19:07:34.169Z,66.36
2018-03-14T19:10:07.716Z,66.63
2018-03-14T19:12:41.333Z,66.96
2018-03-14T19:15:14.945Z,66.66
2018-03-14T19:17:48.558Z,66.84
2018-03-14T19:20:22.081Z,67.70
2018-03-14T19:22:55.727Z,67.44
2018-03-14T19:25:29.592Z,67.32
2018-03-14T19:28:03.379Z,67.68
2018-03-14T19:30:37.003Z,67.79
2018-03-14T19:33:10.603Z,67.36
2018-03-14T19:35:44.475Z,67.27
2018-03-14T19:38:18.236Z,67.04
2018-03-14T19:40:52.138Z,67.24
2018-03-14T19:43:25.874Z,67.29
2018-03-14T19:45:59.473Z,67.52
2018-03-14T19:48:33.150Z,67.69
2018-03-14T19:51:06.944Z,68.02
2018-03-14T19:53:40.619Z,68.31
2018-03-14T19:56:14.296Z,68.20
2018-03-14T19:58:47.963Z,68.69
2018-03-14T20:01:21.612Z,68.72
2018-03-14T20:03:55.229Z,69.53
2018-03-14T20:06:28.994Z,69.43
2018-03-14T20:09:02.645Z,69.21
2018-03-14T20:11:36.243Z,69.43
2018-03-14T20:14:09.858Z,69.11
2018-03-14T20:16:43.513Z,68.66
2018-03-14T20:19:17.072Z,69.03
2018-03-14T20:21:50.994Z,69.04
2018-03-14T20:24:24.611Z,68.85
2018-03-14T20:26:58.338Z,68.67
2018-03-14T20:29:32.000Z,68.68
2018-03-14T20:32:05.625Z,68.32
2018-03-14T20:34:39.175Z,68.83
2018-03-14T20:37:12.737Z,69.18
2018-03-14T20:39:46.426Z,69.01
2018-03-14T20:42:19.998Z,69.05
2018-03-14T20:44:53.786Z,69.14
2018-03-14T20:47:27.470Z,69.58
2018-03-14T20:50:01.083Z,69.35
2018-03-14T20:52:34.766Z,69.17
2018-03-14T20:55:08.285Z,69.29
2018-03-14T20:57:41.959Z,70.07
2018-03-14T21:00:15.482Z,70.22
2018-03-14T21:02:49.122Z,70.59
2018-03-14T21:05:22.930Z,70.56
2018-03-14T21:07:56.699Z,70.24
2018-03-14T21:10:30.267Z,70.35
2018-03-14T21:13:04.034Z,70.43
2018-03-14T21:15:37.695Z,70.62
2018-03-14T21:18:11.309Z,70.47
2018-03-14T21:20:45.079Z,71.25
2018-03-14T21:23:18.654Z,70.94
2018-03-14T21:25:52.416Z,70.75
2018-03-14T21:28:25.996Z,71.24
2018-03-14T21:30:59.750Z,71.27
2018-03-14T21:33:33.360Z,71.19
2018-03-14T21:36:07.195Z,71.57
2018-03-14T21:38:41.104Z,71.11
2018-03-14T21:41:14.651Z,71.08
2018-03-14T21:43:48.222Z,71.34
2018-03-14T21:46:21.902Z,71.35
2018-03-14T21:48:55.474Z,71.00
2018-03-14T21:51:29.066Z,70.93
2018-03-14T21:54:02.642Z,70.62
2018-03-14T21:56:36.161Z,70.74
2018-03-14T21:59:09.710Z,71.19
2018-03-14T22:01:43.379Z,70.90
2018-03-14T22:04:16.991Z,70.86
2018-03-14T22:06:50.734Z,70.48
2018-03-14T22:09:24.376Z,70.46
2018-03-14T22:11:58.004Z,70.49
2018-03-14T22:14:31.492Z,70.29
2018-03-14T22:17:05.090Z,70.46
2018-03-14T22:19:38.598Z,70.67
2018-03-14T22:22:12.200Z,71.08
2018-03-14T22:24:45.830Z,71.03
2018-03-14T22:27:19.425Z,70.82
2018-03-14T22:29:53.034Z,69.97
2018-03-14T22:32:26.705Z,69.75
2018-03-14T22:35:00.331Z,70.17
2018-03-14T22:37:34.034Z,70.10
2018-03-14T22:40:07.641Z,69.60
2018-03-14T22:42:41.273Z,69.35
2018-03-14T22:45:14.835Z,69.60
2018-03-14T22:47:48.518Z,69.57
2018-03-14T22:50:22.051Z,69.93
2018-03-14T22:52:55.694Z,69.58
2018-03-14T22:55:29.382Z,69.63
2018-03-14T22:58:02.962Z,69.82
2018-03-14T23:00:36.622Z,69.80
2018-03-14T23:03:10.182Z,69.70
2018-03-14T23:05:43.881Z,68.85
2018-03-14T23:08:17.559Z,68.62
2018-03-14T23:10:51.161Z,68.70
2018-03-14T23:13:24.717Z,68.24
2018-03-14T23:15:58.382Z,68.70
2018-03-14T23:18:31.962Z,68.70
2018-03-14T23:21:05.611Z,68.39
2018-03-14T23:23:39.142Z,68.27
2018-03-14T23:26:12.766Z,68.07
2018-03-14T23:28:46.413Z,67.88
2018-03-14T23:31:20.087Z,68.11
2018-03-14T23:33:53.552Z,68.32
2018-03-14T23:36:27.178Z,68.62
2018-03-14T23:39:00.814Z,68.41
2018-03-14T23:41:34.389Z,68.20
2018-03-14T23:44:08.018Z,68.07
2018-03-14T23:46:41.712Z,68.03
2018-03-14T23:49:15.301Z,68.64
2018-03-14T23:51:48.977Z,68.34
2018-03-14T23:54:22.637Z,68.33
2018-03-14T23:56:56.302Z,68.77
2018-03-14T23:59:30.053Z,68.97
